Time;durP1;ratioP1;P1;durP2;ratioP2;P2;SDS_P1;SDS_P2;PMS_P1;PMS_P2;Temp;Humidity;BMP_temperature;BMP_pressure;BME280_temperature;BME280_humidity;BME280_pressure;Samples;Min_cycle;Max_cycle;Signal;HPM_P1;HPM_P2
2022/08/23 00:02:41;;;;;;;4.60;1.90;;;20.20;99.90;;;;;;5012205;28;20515;-66
2022/08/23 00:05:45;;;;;;;1.92;1.40;;;20.10;99.90;;;;;;5011379;28;20555;-66
2022/08/23 00:08:50;;;;;;;5.13;2.00;;;20.00;99.90;;;;;;5011406;28;20583;-66
2022/08/23 00:12:06;;;;;;;6.65;2.08;;;19.90;99.90;;;;;;5011861;28;20048;-66
2022/08/23 00:15:15;;;;;;;3.42;2.00;;;19.90;99.90;;;;;;5011888;28;20053;-66
2022/08/23 00:18:19;;;;;;;2.58;1.85;;;19.90;99.90;;;;;;5011978;28;20053;-66
2022/08/23 00:21:23;;;;;;;4.25;2.13;;;19.80;99.90;;;;;;5010729;28;20040;-67
2022/08/23 00:24:27;;;;;;;2.63;2.00;;;19.70;99.90;;;;;;5011355;28;20057;-66
2022/08/23 00:27:32;;;;;;;8.07;2.20;;;19.70;99.90;;;;;;5011801;28;20507;-67
2022/08/23 00:30:36;;;;;;;3.35;1.88;;;19.60;99.90;;;;;;5010980;28;20045;-66
2022/08/23 00:33:40;;;;;;;2.95;2.15;;;19.50;99.90;;;;;;5011587;28;20488;-66
2022/08/23 00:36:44;;;;;;;3.63;2.10;;;19.50;99.90;;;;;;5011568;28;20287;-66
2022/08/23 00:39:49;;;;;;;5.38;2.22;;;19.50;99.90;;;;;;5011165;28;20048;-66
2022/08/23 00:54:23;;;;;;;4.25;2.15;;;19.20;99.90;;;;;;5011054;28;20514;-66
2022/08/23 00:57:29;;;;;;;4.95;2.75;;;19.00;99.90;;;;;;5011304;28;20049;-66
2022/08/23 01:00:34;;;;;;;3.88;2.22;;;19.00;99.90;;;;;;5011390;28;20060;-66
2022/08/23 01:03:41;;;;;;;7.15;2.50;;;19.00;99.90;;;;;;5010733;28;20045;-66
2022/08/23 01:07:26;;;;;;;4.68;2.40;;;19.00;99.90;;;;;;5010293;28;20048;-66
2022/08/23 01:10:52;;;;;;;3.20;2.20;;;19.00;99.90;;;;;;4955500;28;20560;-67
2022/08/23 01:14:06;;;;;;;5.72;2.25;;;18.90;99.90;;;;;;5010407;28;20056;-67
2022/08/23 01:17:19;;;;;;;4.38;2.53;;;18.90;99.90;;;;;;5010755;28;20492;-66
2022/08/23 01:20:25;;;;;;;5.40;2.28;;;19.00;99.90;;;;;;5011513;28;20045;-66
2022/08/23 01:23:45;;;;;;;5.53;2.30;;;18.90;99.90;;;;;;5010134;28;20056;-66
2022/08/23 01:26:49;;;;;;;5.78;2.22;;;19.00;99.90;;;;;;5011083;28;20053;-66
2022/08/23 01:30:12;;;;;;;4.75;2.35;;;18.90;99.90;;;;;;5010288;28;20045;-68
2022/08/23 01:33:16;;;;;;;3.40;2.28;;;18.90;99.90;;;;;;5010836;28;20075;-67
2022/08/23 01:36:42;;;;;;;3.20;2.35;;;18.90;99.90;;;;;;5009580;28;20495;-68
2022/08/23 01:39:46;;;;;;;2.83;2.22;;;18.80;99.90;;;;;;5010619;28;20041;-68
2022/08/23 01:42:52;;;;;;;4.20;2.38;;;18.70;99.90;;;;;;5009883;28;20400;-68
2022/08/23 01:45:56;;;;;;;4.25;2.63;;;18.70;99.90;;;;;;5009721;28;20049;-68
2022/08/23 01:49:05;;;;;;;4.65;2.10;;;18.70;99.90;;;;;;5009706;28;20049;-68
2022/08/23 01:52:28;;;;;;;3.40;2.53;;;18.70;99.90;;;;;;5009768;28;20037;-67
2022/08/23 01:55:35;;;;;;;9.13;2.80;;;18.70;99.90;;;;;;5008968;28;20430;-68
2022/08/23 01:58:57;;;;;;;3.40;2.05;;;18.80;99.90;;;;;;5009342;28;20037;-67
2022/08/23 02:02:04;;;;;;;4.20;2.25;;;18.80;99.90;;;;;;5009461;28;20033;-67
2022/08/23 02:05:09;;;;;;;3.47;2.10;;;18.90;99.90;;;;;;5008946;28;20046;-67
2022/08/23 02:11:41;;;;;;;5.00;2.60;;;18.90;99.90;;;;;;5009404;28;20381;-68
2022/08/23 02:15:04;;;;;;;7.82;2.40;;;19.00;99.90;;;;;;5010013;28;20041;-68
2022/08/23 02:18:29;;;;;;;3.70;2.05;;;18.90;99.90;;;;;;5009786;28;20049;-67
2022/08/23 02:21:34;;;;;;;6.22;2.53;;;18.80;99.90;;;;;;5020935;28;20045;-67
2022/08/23 02:24:43;;;;;;;5.25;3.25;;;18.70;99.90;;;;;;5008803;28;20045;-68
2022/08/23 02:27:47;;;;;;;10.38;3.60;;;18.70;99.90;;;;;;5010121;28;20040;-68
2022/08/23 02:30:52;;;;;;;7.97;3.22;;;18.50;99.90;;;;;;5013985;28;20056;-68
2022/08/23 02:33:57;;;;;;;9.00;3.47;;;18.40;99.90;;;;;;5013516;28;20049;-68
2022/08/23 02:37:08;;;;;;;5.28;3.38;;;18.10;99.90;;;;;;5013011;28;20053;-68
2022/08/23 02:40:12;;;;;;;8.40;3.47;;;18.00;99.90;;;;;;5012804;28;20057;-67
2022/08/23 02:43:17;;;;;;;5.90;3.42;;;18.00;99.90;;;;;;5012396;28;20385;-67
2022/08/23 02:46:40;;;;;;;3.90;2.97;;;17.90;99.90;;;;;;5013429;28;20057;-68
2022/08/23 02:49:44;;;;;;;8.40;3.75;;;17.90;99.90;;;;;;5013863;28;20041;-68
2022/08/23 02:52:49;;;;;;;4.53;3.33;;;17.80;99.90;;;;;;5013433;28;20049;-67
2022/08/23 02:55:53;;;;;;;3.90;2.83;;;17.80;99.90;;;;;;5013363;28;20048;-68
2022/08/23 02:58:57;;;;;;;7.68;3.85;;;17.80;99.90;;;;;;5012452;28;20045;-68
2022/08/23 03:02:02;;;;;;;5.72;3.75;;;17.80;99.90;;;;;;5013440;28;20041;-67
2022/08/23 03:05:13;;;;;;;5.88;4.85;;;17.90;99.90;;;;;;5011692;28;20045;-67
2022/08/23 03:08:19;;;;;;;11.40;4.95;;;17.80;99.90;;;;;;5012180;28;20535;-68
2022/08/23 03:11:25;;;;;;;10.98;5.45;;;17.90;99.90;;;;;;5012385;28;20381;-68
2022/08/23 03:14:30;;;;;;;8.88;5.10;;;17.90;99.90;;;;;;5011672;28;20033;-67
2022/08/23 03:17:53;;;;;;;17.80;5.68;;;17.90;99.90;;;;;;5012731;28;20049;-66
2022/08/23 03:20:57;;;;;;;10.27;4.75;;;17.90;99.90;;;;;;5011969;28;20037;-68
2022/08/23 03:24:01;;;;;;;9.15;4.47;;;17.90;99.90;;;;;;5010993;28;20045;-68
2022/08/23 03:27:07;;;;;;;6.72;4.30;;;17.80;99.90;;;;;;5012128;28;20060;-68
2022/08/23 03:30:11;;;;;;;4.78;4.13;;;17.80;99.90;;;;;;5011958;28;20049;-68
2022/08/23 03:33:16;;;;;;;11.10;4.30;;;17.70;99.90;;;;;;5023170;28;20526;-68
2022/08/23 03:36:23;;;;;;;10.18;3.90;;;17.60;99.90;;;;;;5023633;28;20396;-68
2022/08/23 03:39:28;;;;;;;8.15;3.63;;;17.60;99.90;;;;;;5012840;28;20037;-68
2022/08/23 03:43:13;;;;;;;7.82;3.60;;;17.60;99.90;;;;;;5011886;28;20056;-68
2022/08/23 03:46:24;;;;;;;5.10;3.63;;;17.50;99.90;;;;;;5012443;28;20049;-68
2022/08/23 03:49:33;;;;;;;5.28;3.45;;;17.50;99.90;;;;;;5011487;28;20044;-68
2022/08/23 03:52:37;;;;;;;7.97;3.50;;;17.50;99.90;;;;;;5011529;28;20053;-68
2022/08/23 03:55:42;;;;;;;6.38;3.63;;;17.50;99.90;;;;;;5011599;28;20068;-68
2022/08/23 03:58:49;;;;;;;5.68;3.03;;;17.50;99.90;;;;;;5011397;28;20496;-67
2022/08/23 04:01:53;;;;;;;5.55;3.20;;;17.50;99.90;;;;;;5011710;28;20045;-68
2022/08/23 04:04:58;;;;;;;7.03;3.17;;;17.50;99.90;;;;;;5012219;28;20065;-67
2022/08/23 04:08:12;;;;;;;6.40;3.00;;;17.50;99.90;;;;;;5012362;28;20068;-67
2022/08/23 04:11:18;;;;;;;3.30;3.00;;;17.50;99.90;;;;;;5011414;28;20041;-67
2022/08/23 04:14:50;;;;;;;4.15;2.92;;;17.60;99.90;;;;;;5011084;28;20044;-68
2022/08/23 04:18:12;;;;;;;4.07;2.97;;;17.70;99.90;;;;;;5011547;28;20044;-67
2022/08/23 04:25:02;;;;;;;3.60;2.90;;;17.80;99.90;;;;;;5010482;28;20045;-67
2022/08/23 04:28:06;;;;;;;4.13;3.10;;;17.90;99.90;;;;;;5011065;28;20504;-67
2022/08/23 04:31:11;;;;;;;6.88;3.10;;;17.90;99.90;;;;;;5011619;28;20504;-68
2022/08/23 04:34:18;;;;;;;6.95;3.08;;;17.90;99.90;;;;;;5010235;28;20044;-68
2022/08/23 04:37:22;;;;;;;5.57;2.50;;;17.80;99.90;;;;;;5010672;28;20040;-67
2022/08/23 04:44:08;;;;;;;7.40;4.05;;;17.70;99.90;;;;;;5010401;28;20033;-67
2022/08/23 04:47:12;;;;;;;;;;;17.60;99.90;;;;;;5011334;28;20071;-68
2022/08/23 04:50:16;;;;;;;6.40;2.53;;;17.60;99.90;;;;;;5010177;28;20380;-68
2022/08/23 04:53:42;;;;;;;10.90;3.20;;;17.60;99.90;;;;;;5010827;28;20049;-68
2022/08/23 04:57:05;;;;;;;9.25;2.85;;;17.70;99.90;;;;;;5011155;28;20065;-67
2022/08/23 05:00:13;;;;;;;3.53;2.78;;;17.70;99.90;;;;;;5010335;28;20436;-67
2022/08/23 05:03:26;;;;;;;4.15;2.75;;;17.80;99.90;;;;;;5009988;28;20161;-67
2022/08/23 05:06:50;;;;;;;4.30;3.25;;;17.80;99.90;;;;;;5011037;28;20053;-67
2022/08/23 05:09:54;;;;;;;6.38;3.30;;;17.90;99.90;;;;;;5010041;28;20052;-67
2022/08/23 05:12:58;;;;;;;9.02;3.17;;;17.90;99.90;;;;;;5010327;28;20053;-69
2022/08/23 05:19:35;;;;;;;5.15;2.63;;;17.90;99.90;;;;;;5009546;28;20037;-68
2022/08/23 05:22:41;;;;;;;4.47;2.72;;;18.00;99.90;;;;;;5010434;28;20057;-68
2022/08/23 05:26:00;;;;;;;7.07;2.80;;;19.60;99.90;;;;;;5009714;28;20453;-68
2022/08/23 05:29:10;;;;;;;2.90;2.33;;;23.30;99.90;;;;;;5009489;28;20056;-69
2022/08/23 05:32:21;;;;;;;4.60;2.20;;;26.20;99.90;;;;;;5009366;28;20045;-68
2022/08/23 05:35:25;;;;;;;6.65;2.17;;;28.10;99.90;;;;;;5009067;28;20065;-68
2022/08/23 05:38:30;;;;;;;5.75;1.90;;;29.50;99.90;;;;;;5009832;28;20049;-68
2022/08/23 05:41:36;;;;;;;5.00;1.90;;;30.60;99.90;;;;;;5009167;28;20041;-68
2022/08/23 05:44:40;;;;;;;3.33;1.95;;;31.30;99.90;;;;;;5009270;28;20064;-68
2022/08/23 05:47:46;;;;;;;4.05;1.80;;;31.20;99.90;;;;;;5020956;28;20064;-68
2022/08/23 05:51:11;;;;;;;3.85;1.60;;;31.30;99.90;;;;;;5009295;28;20045;-68
2022/08/23 05:54:15;;;;;;;7.38;1.92;;;31.60;99.20;;;;;;5008917;28;20048;-68
2022/08/23 05:57:19;;;;;;;4.07;1.75;;;32.10;98.90;;;;;;5009254;28;20041;-69
2022/08/23 06:00:24;;;;;;;2.10;1.27;;;32.20;98.30;;;;;;5009509;28;20048;-68
2022/08/23 06:03:36;;;;;;;2.47;1.60;;;32.80;97.50;;;;;;5015511;28;20048;-68
2022/08/23 06:07:00;;;;;;;3.28;1.35;;;32.00;96.80;;;;;;5021232;28;20053;-68
2022/08/23 06:10:05;;;;;;;6.78;1.38;;;31.60;97.00;;;;;;5019959;28;20076;-68
2022/08/23 06:13:29;;;;;;;4.03;1.90;;;31.50;97.70;;;;;;5015366;28;20056;-68
2022/08/23 06:16:38;;;;;;;6.70;1.83;;;30.10;98.30;;;;;;5015643;28;20044;-68
2022/08/23 06:20:01;;;;;;;3.72;2.20;;;30.30;99.30;;;;;;5033347;28;20414;-68
2022/08/23 06:23:15;;;;;;;3.83;1.60;;;30.30;98.90;;;;;;5032031;28;20048;-68
2022/08/23 06:26:23;;;;;;;3.30;1.70;;;29.70;99.30;;;;;;5032237;28;20045;-68
2022/08/23 06:30:04;;;;;;;6.13;1.70;;;29.10;99.90;;;;;;5033734;28;20044;-68
2022/08/23 06:33:08;;;;;;;4.53;2.30;;;28.80;99.90;;;;;;5029664;28;20396;-67
2022/08/23 06:36:24;;;;;;;4.45;1.90;;;27.90;99.90;;;;;;5030249;28;20048;-67
2022/08/23 06:39:37;;;;;;;8.50;1.70;;;27.30;99.90;;;;;;5013044;28;20041;-68
2022/08/23 06:43:03;;;;;;;6.20;1.60;;;28.00;99.90;;;;;;5008500;28;20404;-67
2022/08/23 06:46:27;;;;;;;6.95;2.22;;;28.00;99.90;;;;;;5023547;28;20057;-68
2022/08/23 06:49:33;;;;;;;8.07;1.90;;;28.20;99.90;;;;;;5031454;28;20338;-68
2022/08/23 06:52:38;;;;;;;8.15;1.80;;;29.00;99.90;;;;;;5014439;28;20052;-68
2022/08/23 06:56:15;;;;;;;3.50;1.73;;;29.40;99.90;;;;;;5016730;28;20057;-67
2022/08/23 06:59:30;;;;;;;6.03;1.60;;;28.80;99.90;;;;;;5020913;28;20076;-68
2022/08/23 07:02:36;;;;;;;3.97;1.75;;;27.80;99.90;;;;;;5020492;28;20040;-69
2022/08/23 07:06:00;;;;;;;6.57;1.60;;;28.30;99.90;;;;;;5013297;28;20049;-69
2022/08/23 07:09:08;;;;;;;10.65;1.80;;;28.30;99.90;;;;;;5013173;28;20053;-68
2022/08/23 07:15:34;;;;;;;10.18;1.40;;;28.90;99.90;;;;;;5012548;28;20488;-68
2022/08/23 07:22:04;;;;;;;9.70;2.22;;;29.40;99.90;;;;;;5021890;28;20365;-67
2022/08/23 07:25:08;;;;;;;9.55;2.15;;;29.10;99.90;;;;;;5031268;28;20041;-67
2022/08/23 07:28:15;;;;;;;7.07;1.90;;;27.70;99.90;;;;;;5027824;28;20055;-67
2022/08/23 07:31:41;;;;;;;5.93;1.90;;;27.90;99.90;;;;;;5039552;28;20502;-67
2022/08/23 07:34:45;;;;;;;6.60;2.00;;;29.20;99.90;;;;;;5012200;28;20408;-68
2022/08/23 07:37:50;;;;;;;5.65;1.90;;;28.80;99.90;;;;;;5013656;28;20424;-68
2022/08/23 07:40:54;;;;;;;7.05;2.40;;;28.80;99.90;;;;;;5012302;28;20045;-67
2022/08/23 07:44:01;;;;;;;6.28;2.25;;;27.20;99.90;;;;;;5010544;28;20045;-67
2022/08/23 07:47:06;;;;;;;7.45;1.95;;;27.00;99.90;;;;;;5013379;28;20045;-67
2022/08/23 07:50:10;;;;;;;5.53;1.85;;;29.40;99.90;;;;;;5012356;28;20057;-67
2022/08/23 07:53:14;;;;;;;3.97;1.58;;;30.80;99.90;;;;;;5023396;28;20155;-67
2022/08/23 07:56:39;;;;;;;6.90;2.10;;;30.30;99.90;;;;;;5027210;28;20048;-67
2022/08/23 07:59:50;;;;;;;7.68;2.42;;;29.80;99.90;;;;;;5030902;28;20045;-68
2022/08/23 08:03:15;;;;;;;6.75;1.75;;;30.10;99.40;;;;;;5017791;28;20048;-67
2022/08/23 08:06:46;;;;;;;6.63;1.88;;;32.00;97.50;;;;;;5024519;28;20056;-67
2022/08/23 08:09:51;;;;;;;7.40;1.83;;;33.50;96.10;;;;;;5016702;28;20049;-67
2022/08/23 08:12:55;;;;;;;4.03;1.70;;;33.60;95.30;;;;;;5030048;28;20048;-67
2022/08/23 08:16:22;;;;;;;3.13;1.85;;;31.70;95.60;;;;;;5031682;28;20047;-66
2022/08/23 08:19:45;;;;;;;5.15;1.77;;;31.90;96.90;;;;;;5011792;28;20065;-67
2022/08/23 08:23:20;;;;;;;5.28;1.80;;;32.90;95.20;;;;;;5011115;28;20053;-67
2022/08/23 08:26:45;;;;;;;5.63;1.92;;;35.30;94.00;;;;;;5013006;28;20660;-68
2022/08/23 08:29:50;;;;;;;6.53;1.40;;;36.40;92.20;;;;;;5027264;28;20048;-67
2022/08/23 08:32:54;;;;;;;3.67;1.30;;;38.00;91.30;;;;;;5023013;28;20384;-67
2022/08/23 08:35:58;;;;;;;4.55;1.35;;;38.00;89.50;;;;;;5012689;28;20506;-67
2022/08/23 08:39:25;;;;;;;3.60;1.17;;;38.30;87.60;;;;;;5017891;28;20060;-67
2022/08/23 08:42:58;;;;;;;6.00;1.15;;;38.90;85.40;;;;;;5020193;28;20420;-67
2022/08/23 08:46:10;;;;;;;5.10;1.30;;;38.40;84.40;;;;;;5024549;28;20059;-67
2022/08/23 08:49:37;;;;;;;7.13;1.92;;;37.50;83.00;;;;;;5016422;28;20487;-68
2022/08/23 08:53:01;;;;;;;2.28;1.27;;;37.50;83.50;;;;;;5028611;28;20483;-67
2022/08/23 08:56:47;;;;;;;4.03;1.17;;;39.10;84.70;;;;;;5014881;28;20044;-67
2022/08/23 09:00:05;;;;;;;3.90;1.30;;;40.60;80.70;;;;;;5011530;28;20483;-67
2022/08/23 09:03:14;;;;;;;3.65;1.08;;;40.70;80.60;;;;;;5019760;28;20440;-67
2022/08/23 09:06:48;;;;;;;4.45;1.27;;;41.20;78.20;;;;;;5031039;28;20044;-67
2022/08/23 09:09:56;;;;;;;1.63;0.98;;;41.70;77.70;;;;;;5030196;28;20044;-67
2022/08/23 09:13:39;;;;;;;6.22;1.00;;;39.60;78.40;;;;;;5030391;28;20064;-67
2022/08/23 09:17:11;;;;;;;1.55;0.98;;;40.50;78.10;;;;;;5029926;28;20050;-68
2022/08/23 09:20:35;;;;;;;2.95;0.90;;;40.50;77.40;;;;;;5010249;28;20049;-68
2022/08/23 09:23:57;;;;;;;2.65;1.13;;;42.20;75.20;;;;;;5018231;28;20040;-68
2022/08/23 09:27:11;;;;;;;2.42;1.00;;;42.70;75.30;;;;;;5030079;28;20744;-68
2022/08/23 09:30:37;;;;;;;4.60;1.20;;;42.50;72.50;;;;;;5022485;28;20056;-68
2022/08/23 09:34:00;;;;;;;2.40;1.10;;;42.60;72.40;;;;;;5015430;28;20153;-68
2022/08/23 09:37:22;;;;;;;3.00;1.20;;;41.60;71.20;;;;;;5009866;28;20049;-67
2022/08/23 09:40:48;;;;;;;1.55;0.85;;;41.60;71.80;;;;;;5011573;28;20044;-68
2022/08/23 09:43:54;;;;;;;1.42;0.80;;;42.60;67.20;;;;;;5010101;28;20033;-68
2022/08/23 09:47:10;;;;;;;3.45;1.08;;;44.20;65.90;;;;;;5026369;28;20044;-69
2022/08/23 09:50:21;;;;;;;3.25;1.42;;;45.60;64.90;;;;;;5012775;28;20248;-68
2022/08/23 09:53:26;;;;;;;1.63;0.98;;;44.40;64.30;;;;;;5009430;28;20045;-68
2022/08/23 09:56:39;;;;;;;1.80;0.90;;;44.20;65.80;;;;;;5028762;28;20057;-68
2022/08/23 10:00:05;;;;;;;1.63;0.90;;;46.30;65.20;;;;;;5028523;28;20045;-68
2022/08/23 10:03:26;;;;;;;3.33;0.85;;;47.60;63.00;;;;;;5024824;28;20045;-67
2022/08/23 10:06:38;;;;;;;0.95;0.65;;;47.60;60.50;;;;;;5009649;28;20397;-68
2022/08/23 10:09:44;;;;;;;1.45;0.80;;;46.00;59.80;;;;;;5026228;28;20045;-68
2022/08/23 10:13:08;;;;;;;1.45;0.88;;;46.70;60.50;;;;;;5030044;28;20045;-68
2022/08/23 10:16:23;;;;;;;3.80;1.00;;;44.90;61.20;;;;;;5010788;28;20499;-68
2022/08/23 10:19:38;;;;;;;2.75;0.88;;;46.40;61.30;;;;;;5014256;28;20384;-69
2022/08/23 10:22:47;;;;;;;2.38;0.93;;;41.10;63.10;;;;;;5029260;28;20109;-68
2022/08/23 10:26:00;;;;;;;0.93;0.80;;;43.60;64.30;;;;;;5023733;28;20040;-69
2022/08/23 10:29:39;;;;;;;3.03;0.90;;;45.60;63.70;;;;;;5022913;28;20387;-68
2022/08/23 10:33:18;;;;;;;1.63;1.02;;;47.70;61.50;;;;;;5028358;28;20052;-68
2022/08/23 10:37:02;;;;;;;6.32;1.10;;;44.70;61.40;;;;;;5020135;28;20399;-69
2022/08/23 10:40:29;;;;;;;5.28;0.90;;;46.50;61.40;;;;;;5022535;28;20035;-69
2022/08/23 10:43:33;;;;;;;5.70;1.02;;;47.40;60.20;;;;;;5008459;28;20061;-69
2022/08/23 10:46:54;;;;;;;1.70;0.57;;;47.80;60.80;;;;;;5026444;28;20502;-69
2022/08/23 10:50:19;;;;;;;5.63;1.02;;;48.40;56.90;;;;;;5026103;28;20033;-69
2022/08/23 10:53:33;;;;;;;1.67;0.70;;;48.20;58.70;;;;;;5012583;28;20504;-68
2022/08/23 10:56:38;;;;;;;1.90;0.70;;;49.10;56.10;;;;;;5015905;28;20053;-69
2022/08/23 10:59:45;;;;;;;1.10;0.70;;;49.70;57.10;;;;;;5013554;28;20060;-68
2022/08/23 11:03:21;;;;;;;2.92;0.98;;;50.80;56.60;;;;;;5012474;28;20389;-70
2022/08/23 11:06:36;;;;;;;3.88;0.80;;;51.60;55.20;;;;;;5027840;28;20079;-68
2022/08/23 11:10:18;;;;;;;2.67;0.68;;;50.60;53.70;;;;;;5022678;28;20040;-68
2022/08/23 11:13:28;;;;;;;1.63;0.90;;;46.50;55.20;;;;;;5027557;28;20045;-68
2022/08/23 11:16:34;;;;;;;5.55;0.90;;;41.60;57.30;;;;;;5014357;28;20520;-67
2022/08/23 11:19:51;;;;;;;4.53;1.30;;;39.30;60.50;;;;;;5027244;28;20048;-68
2022/08/23 11:22:56;;;;;;;2.05;0.98;;;37.90;61.70;;;;;;5016268;28;20484;-68
2022/08/23 11:26:06;;;;;;;1.35;0.70;;;40.10;60.70;;;;;;5020842;28;20401;-68
2022/08/23 11:29:29;;;;;;;2.28;0.95;;;42.80;57.60;;;;;;5025395;28;20516;-68
2022/08/23 11:37:19;;;;;;;0.50;0.45;;;46.20;55.70;;;;;;5030989;28;20064;-68
2022/08/23 11:44:05;;;;;;;2.20;0.77;;;48.80;53.70;;;;;;5025289;28;20045;-68
2022/08/23 11:47:11;;;;;;;3.40;0.80;;;48.90;54.00;;;;;;5020021;28;20409;-68
2022/08/23 11:50:41;;;;;;;2.35;0.60;;;49.20;53.90;;;;;;5022343;28;20037;-68
2022/08/23 11:53:45;;;;;;;1.85;0.60;;;48.20;53.40;;;;;;5020274;28;20044;-67
2022/08/23 11:57:03;;;;;;;1.77;0.70;;;47.20;52.80;;;;;;5022555;28;20052;-67
2022/08/23 12:00:18;;;;;;;2.53;0.70;;;46.30;54.00;;;;;;5019353;28;20037;-68
2022/08/23 12:03:53;;;;;;;1.15;0.70;;;47.10;54.30;;;;;;5016577;28;20096;-67
2022/08/23 12:10:50;;;;;;;5.20;0.60;;;47.50;54.10;;;;;;5011626;28;20045;-68
2022/08/23 12:14:31;;;;;;;1.23;0.60;;;48.00;52.40;;;;;;5011566;28;20048;-68
2022/08/23 12:21:04;;;;;;;1.98;0.43;;;49.10;49.70;;;;;;5012045;28;20045;-68
2022/08/23 12:24:17;;;;;;;1.83;0.57;;;48.70;50.00;;;;;;5011348;28;20045;-68
2022/08/23 12:27:49;;;;;;;1.58;0.90;;;47.90;50.10;;;;;;5011208;28;20048;-67
2022/08/23 12:31:10;;;;;;;2.30;0.60;;;47.20;50.80;;;;;;5012815;28;20311;-67
2022/08/23 12:34:44;;;;;;;2.42;0.70;;;47.10;49.90;;;;;;5011573;28;20056;-67
2022/08/23 12:38:19;;;;;;;0.80;0.50;;;47.00;50.10;;;;;;5011900;28;20049;-70
2022/08/23 12:41:49;;;;;;;1.60;0.63;;;47.00;50.70;;;;;;5012041;28;20037;-67
2022/08/23 12:45:07;;;;;;;1.05;0.50;;;47.40;48.90;;;;;;4999599;28;20044;-68
2022/08/23 12:48:13;;;;;;;4.70;0.70;;;48.10;48.20;;;;;;5011874;28;20511;-68
2022/08/23 12:51:17;;;;;;;2.17;0.70;;;48.60;49.90;;;;;;5011819;28;20499;-68
2022/08/23 12:54:32;;;;;;;0.60;0.43;;;48.00;49.40;;;;;;5011732;28;20122;-68
2022/08/23 12:57:39;;;;;;;0.77;0.60;;;47.30;49.60;;;;;;5011841;28;20040;-68
2022/08/23 13:04:38;;;;;;;2.75;0.70;;;47.00;49.80;;;;;;5011332;28;20053;-68
2022/08/23 13:07:42;;;;;;;1.35;0.70;;;46.20;50.20;;;;;;5011781;28;20504;-68
2022/08/23 13:10:46;;;;;;;1.38;0.55;;;46.20;51.00;;;;;;5011658;28;20052;-67
2022/08/23 13:13:51;;;;;;;2.80;0.70;;;46.30;50.60;;;;;;5011029;28;20048;-67
2022/08/23 13:16:55;;;;;;;1.70;0.75;;;46.00;50.60;;;;;;5010557;28;20048;-68
2022/08/23 13:20:22;;;;;;;2.70;0.70;;;45.20;50.30;;;;;;5011203;28;20064;-68
2022/08/23 13:23:27;;;;;;;2.38;0.65;;;44.90;52.20;;;;;;5011064;28;20041;-67
2022/08/23 13:26:41;;;;;;;1.30;0.80;;;44.80;52.20;;;;;;5011268;28;20060;-68
2022/08/23 13:29:52;;;;;;;1.08;0.65;;;44.40;51.50;;;;;;5010812;28;20041;-67
2022/08/23 13:33:06;;;;;;;1.75;0.80;;;43.60;52.20;;;;;;5011040;28;20045;-68
2022/08/23 13:36:18;;;;;;;1.80;0.90;;;43.50;52.50;;;;;;5011398;28;20041;-68
2022/08/23 13:39:22;;;;;;;1.00;0.80;;;43.30;52.70;;;;;;5010811;28;20048;-66
2022/08/23 13:42:51;;;;;;;1.77;0.80;;;42.70;52.30;;;;;;5010917;28;20496;-67
2022/08/23 13:45:59;;;;;;;1.90;0.80;;;41.90;53.10;;;;;;5011106;28;20041;-68
2022/08/23 13:49:08;;;;;;;1.05;0.80;;;41.00;54.10;;;;;;5010608;28;20050;-68
2022/08/23 13:52:12;;;;;;;1.52;0.88;;;40.20;55.50;;;;;;5011209;28;20048;-67
2022/08/23 13:55:16;;;;;;;1.60;0.93;;;40.20;54.40;;;;;;5010432;28;20049;-68
2022/08/23 14:01:53;;;;;;;3.08;1.00;;;40.20;54.70;;;;;;5011007;28;20053;-67
2022/08/23 14:04:57;;;;;;;1.38;0.80;;;39.40;55.00;;;;;;5010641;28;20404;-67
2022/08/23 14:08:03;;;;;;;1.85;1.00;;;38.80;55.50;;;;;;5010713;28;20049;-66
2022/08/23 14:11:07;;;;;;;1.10;0.70;;;38.50;55.60;;;;;;5011128;28;20053;-67
2022/08/23 14:14:31;;;;;;;1.42;1.13;;;38.10;56.40;;;;;;5010893;28;20393;-66
2022/08/23 14:17:54;;;;;;;1.80;1.08;;;38.00;56.30;;;;;;5010650;28;20064;-66
2022/08/23 14:20:58;;;;;;;1.52;1.02;;;37.70;56.80;;;;;;5010426;28;20045;-66
2022/08/23 14:24:02;;;;;;;3.20;0.88;;;37.70;58.70;;;;;;5012320;28;20492;-66
2022/08/23 14:27:07;;;;;;;2.00;1.20;;;37.50;57.50;;;;;;5014398;28;20049;-66
2022/08/23 14:30:31;;;;;;;4.60;1.10;;;37.30;58.50;;;;;;5014222;28;20420;-67
2022/08/23 14:33:35;;;;;;;1.38;0.80;;;37.00;57.90;;;;;;5014077;28;20504;-67
2022/08/23 14:36:39;;;;;;;1.20;1.00;;;36.60;57.90;;;;;;5014313;28;20049;-65
2022/08/23 14:39:43;;;;;;;1.88;1.08;;;36.20;58.80;;;;;;5014583;28;20072;-68
2022/08/23 14:42:48;;;;;;;3.35;1.23;;;36.20;58.90;;;;;;5014555;28;20045;-68
2022/08/23 14:46:11;;;;;;;1.55;0.80;;;36.10;59.90;;;;;;5014436;28;20065;-68
2022/08/23 14:49:15;;;;;;;1.77;0.90;;;35.90;58.50;;;;;;5014294;28;20413;-69
2022/08/23 14:52:19;;;;;;;1.45;1.05;;;35.60;59.10;;;;;;5014493;28;20040;-68
2022/08/23 14:55:24;;;;;;;4.05;2.25;;;35.40;59.30;;;;;;5014190;28;20507;-68
2022/08/23 14:58:49;;;;;;;1.70;0.90;;;35.20;60.80;;;;;;5013757;28;20061;-67
2022/08/23 15:02:19;;;;;;;1.65;1.08;;;34.90;62.60;;;;;;5013950;28;20110;-67
2022/08/23 15:05:23;;;;;;;1.35;1.10;;;34.70;60.60;;;;;;5013536;28;20400;-68
2022/08/23 15:08:28;;;;;;;1.75;1.00;;;34.70;61.30;;;;;;5014342;28;20041;-67
2022/08/23 15:11:32;;;;;;;1.50;1.20;;;34.70;60.80;;;;;;5013699;28;20045;-67
2022/08/23 15:14:37;;;;;;;2.35;1.10;;;34.50;60.40;;;;;;5013538;28;20503;-67
2022/08/23 15:18:02;;;;;;;2.80;1.20;;;34.50;60.70;;;;;;5012686;28;20052;-68
2022/08/23 15:21:08;;;;;;;3.28;1.13;;;34.40;60.90;;;;;;5013857;28;20048;-69
2022/08/23 15:24:12;;;;;;;1.75;1.10;;;34.20;61.40;;;;;;5013034;28;20121;-67
2022/08/23 15:27:18;;;;;;;3.13;1.30;;;34.20;61.90;;;;;;5013839;28;20480;-67
2022/08/23 15:30:22;;;;;;;2.53;1.08;;;34.10;61.90;;;;;;5013299;28;20053;-67
2022/08/23 15:33:28;;;;;;;3.08;1.40;;;33.80;62.90;;;;;;5012978;28;20049;-68
2022/08/23 15:36:38;;;;;;;1.27;1.00;;;33.60;63.20;;;;;;5012960;28;20048;-67
2022/08/23 15:39:43;;;;;;;2.22;0.90;;;33.30;64.10;;;;;;5013023;28;20416;-67
2022/08/23 15:42:47;;;;;;;4.30;1.10;;;33.00;64.80;;;;;;5013370;28;20056;-68
2022/08/23 15:45:51;;;;;;;3.92;1.23;;;32.70;64.50;;;;;;5013224;28;20049;-67
2022/08/23 15:49:17;;;;;;;2.25;1.10;;;32.50;64.80;;;;;;5013078;28;20052;-67
2022/08/23 15:52:21;;;;;;;1.70;1.10;;;32.20;65.70;;;;;;5012875;28;20064;-67
2022/08/23 15:58:53;;;;;;;1.30;0.90;;;31.80;65.40;;;;;;5012546;28;20408;-69
2022/08/23 16:01:57;;;;;;;1.95;1.30;;;31.60;65.30;;;;;;5012774;28;20064;-68
2022/08/23 16:05:02;;;;;;;3.05;1.10;;;31.50;65.30;;;;;;5012092;28;20037;-68
2022/08/23 16:08:16;;;;;;;3.00;1.00;;;31.40;65.30;;;;;;5012780;28;20056;-68
2022/08/23 16:11:20;;;;;;;3.53;1.40;;;31.30;65.50;;;;;;5012668;28;20511;-69
2022/08/23 16:14:24;;;;;;;1.30;1.10;;;31.10;65.50;;;;;;5012179;28;20041;-67
2022/08/23 16:17:28;;;;;;;2.03;1.05;;;31.10;66.20;;;;;;5012449;28;20485;-67
2022/08/23 16:20:33;;;;;;;1.77;0.90;;;30.90;65.90;;;;;;5012751;28;20057;-68
2022/08/23 16:27:18;;;;;;;1.67;1.00;;;30.80;66.50;;;;;;5012324;28;20037;-67
2022/08/23 16:30:24;;;;;;;1.75;1.10;;;30.70;66.90;;;;;;5011878;28;20045;-67
2022/08/23 16:33:28;;;;;;;1.50;1.00;;;30.50;66.50;;;;;;5011999;28;20049;-67
2022/08/23 16:36:32;;;;;;;1.80;0.95;;;30.40;66.90;;;;;;5011976;28;20048;-67
2022/08/23 16:39:38;;;;;;;1.63;0.88;;;30.30;68.00;;;;;;5011875;28;20056;-67
2022/08/23 16:42:42;;;;;;;1.08;0.70;;;30.20;68.00;;;;;;5012376;28;20503;-67
2022/08/23 16:46:05;;;;;;;3.83;0.90;;;30.10;68.80;;;;;;5011078;28;20041;-67
2022/08/23 16:49:29;;;;;;;2.03;0.93;;;30.00;69.30;;;;;;5012139;28;20052;-67
2022/08/23 16:52:34;;;;;;;1.92;1.00;;;29.90;69.80;;;;;;5012058;28;20524;-67
2022/08/23 16:55:38;;;;;;;2.17;1.20;;;29.80;70.20;;;;;;5011968;28;20488;-67
2022/08/23 16:58:44;;;;;;;2.97;1.33;;;29.80;70.70;;;;;;5011793;28;20056;-67
2022/08/23 17:02:17;;;;;;;2.85;1.33;;;29.70;71.30;;;;;;5012243;28;20041;-66
2022/08/23 17:05:21;;;;;;;1.92;1.13;;;29.50;71.80;;;;;;5011265;28;20393;-66
2022/08/23 17:08:25;;;;;;;2.28;1.10;;;29.40;72.50;;;;;;5011533;28;20045;-67
2022/08/23 17:11:29;;;;;;;1.20;0.95;;;29.30;72.90;;;;;;5011564;28;20385;-67
2022/08/23 17:14:34;;;;;;;1.90;1.30;;;29.20;72.30;;;;;;5011198;28;20065;-66
2022/08/23 17:17:38;;;;;;;1.80;1.13;;;29.10;72.50;;;;;;5011304;28;20508;-67
2022/08/23 17:21:01;;;;;;;2.40;1.45;;;29.00;73.20;;;;;;5011046;28;20057;-67
2022/08/23 17:24:06;;;;;;;2.25;1.42;;;28.80;72.80;;;;;;5010709;28;20048;-68
2022/08/23 17:27:11;;;;;;;1.35;1.13;;;28.50;73.30;;;;;;5010996;28;20053;-67
2022/08/23 17:30:18;;;;;;;3.33;1.60;;;28.40;74.30;;;;;;5010505;28;20052;-67
2022/08/23 17:33:22;;;;;;;3.40;1.60;;;28.30;74.60;;;;;;5011300;28;20044;-67
2022/08/23 17:36:36;;;;;;;3.42;1.77;;;28.20;74.90;;;;;;5010526;28;20397;-67
2022/08/23 17:39:40;;;;;;;2.00;1.40;;;28.10;75.10;;;;;;5011401;28;20045;-67
2022/08/23 17:42:48;;;;;;;4.60;1.10;;;28.00;75.70;;;;;;5011029;28;20041;-66
2022/08/23 17:45:52;;;;;;;2.05;1.20;;;27.80;75.60;;;;;;5011112;28;20053;-66